Time;durP1;ratioP1;P1;durP2;ratioP2;P2;SDS_P1;SDS_P2;PMS_P1;PMS_P2;Temp;Humidity;BMP_temperature;BMP_pressure;BME280_temperature;BME280_humidity;BME280_pressure;Samples;Min_cycle;Max_cycle;Signal;HPM_P1;HPM_P2
2022/01/24 00:00:16;;;;;;;3.58;3.08;;;;;;;5.09;100.00;103560.81;5016508;28;20030;-70
2022/01/24 00:02:43;;;;;;;4.10;3.70;;;;;;;5.12;100.00;103553.84;5023781;28;20022;-70
2022/01/24 00:05:10;;;;;;;7.93;4.40;;;;;;;5.12;100.00;103552.97;5007725;28;20052;-70
2022/01/24 00:07:35;;;;;;;3.63;3.10;;;;;;;5.14;100.00;103552.16;5018148;28;20022;-69
2022/01/24 00:10:05;;;;;;;4.93;4.30;;;;;;;5.32;100.00;103549.94;5010613;28;20034;-69
2022/01/24 00:12:44;;;;;;;7.38;3.70;;;;;;;5.27;100.00;103545.41;5009170;28;20080;-69
2022/01/24 00:15:20;;;;;;;4.70;4.30;;;;;;;5.21;100.00;103546.16;5012898;28;20037;-68
2022/01/24 00:17:52;;;;;;;4.72;4.40;;;;;;;5.22;100.00;103547.94;5015006;28;20069;-69
2022/01/24 00:28:24;;;;;;;4.25;3.85;;;;;;;5.28;100.00;103526.13;5013196;28;20073;-69
2022/01/24 00:30:51;;;;;;;3.88;3.58;;;;;;;5.25;100.00;103536.56;5014745;28;20030;-69
2022/01/24 00:33:18;;;;;;;5.82;5.22;;;;;;;5.21;100.00;103532.09;5007234;28;20396;-70
2022/01/24 00:35:44;;;;;;;4.55;4.18;;;;;;;5.20;100.00;103539.09;5003009;28;20049;-70
2022/01/24 00:38:09;;;;;;;7.57;4.35;;;;;;;5.18;100.00;103542.56;5015862;28;20022;-70
2022/01/24 00:40:41;;;;;;;6.70;4.10;;;;;;;5.12;100.00;103540.66;5011804;28;20091;-69
2022/01/24 00:56:15;;;;;;;5.70;5.18;;;;;;;5.15;100.00;103540.78;5013027;28;20049;-71
2022/01/24 00:58:41;;;;;;;9.18;6.00;;;;;;;5.14;100.00;103525.81;5013004;28;20030;-70
2022/01/24 01:01:07;;;;;;;5.00;4.57;;;;;;;5.15;100.00;103539.88;5013027;28;20030;-70
2022/01/24 01:03:32;;;;;;;5.63;5.05;;;;;;;5.14;100.00;103536.34;5011376;28;20495;-70
2022/01/24 01:19:20;;;;;;;6.90;5.20;;;;;;;5.14;100.00;103533.72;5009597;28;20032;-69
2022/01/24 01:21:46;;;;;;;5.07;4.63;;;;;;;5.14;100.00;103535.47;5006477;28;20034;-70
2022/01/24 01:24:12;;;;;;;5.32;4.90;;;;;;;5.16;100.00;103533.75;5006648;28;20028;-69
2022/01/24 01:26:47;;;;;;;4.80;3.63;;;;;;;5.16;100.00;103539.00;5009486;28;20049;-70
2022/01/24 01:29:20;;;;;;;3.88;3.58;;;;;;;5.16;100.00;103539.91;5009506;28;20029;-70
2022/01/24 01:32:04;;;;;;;4.90;3.60;;;;;;;5.15;100.00;103537.25;5008504;28;20815;-71
2022/01/24 01:34:59;;;;;;;4.60;3.85;;;;;;;5.14;100.00;103548.66;5012940;28;20037;-70
2022/01/24 01:37:51;;;;;;;4.95;4.45;;;;;;;5.09;100.00;103540.59;5009771;28;20037;-70
2022/01/24 01:56:13;;;;;;;4.18;3.70;;;;;;;5.04;100.00;103529.09;5019409;28;20501;-69
2022/01/24 01:58:38;;;;;;;6.18;4.85;;;;;;;5.03;100.00;103523.81;5021531;28;20056;-69
2022/01/24 02:01:05;;;;;;;5.10;3.70;;;;;;;5.10;100.00;103528.34;5021415;28;20026;-70
2022/01/24 02:03:31;;;;;;;5.28;4.80;;;;;;;5.11;100.00;103533.63;5021199;28;20029;-69
2022/01/24 02:05:56;;;;;;;7.50;4.97;;;;;;;5.10;100.00;103546.78;5020076;28;20465;-69
2022/01/24 02:08:23;;;;;;;8.27;5.65;;;;;;;5.04;100.00;103538.75;5019641;28;20026;-69
2022/01/24 02:10:48;;;;;;;4.63;4.15;;;;;;;5.10;100.00;103542.41;5021289;28;20028;-70
2022/01/24 02:13:14;;;;;;;7.78;4.72;;;;;;;5.07;100.00;103530.91;5019739;28;20025;-69
2022/01/24 02:25:53;;;;;;;8.85;5.18;;;;;;;5.03;100.00;103519.41;5001145;28;20046;-68
2022/01/24 02:28:21;;;;;;;8.75;3.97;;;;;;;5.02;100.00;103520.28;5000405;28;20027;-69
2022/01/24 02:30:58;;;;;;;9.00;4.05;;;;;;;5.00;100.00;103519.34;4999658;28;20027;-68
2022/01/24 02:33:24;;;;;;;3.40;3.10;;;;;;;5.00;100.00;103514.06;5001711;28;20029;-69
2022/01/24 02:35:50;;;;;;;5.95;4.60;;;;;;;4.95;100.00;103505.16;5000536;28;20081;-69
2022/01/24 02:49:11;;;;;;;5.35;3.42;;;;;;;4.99;100.00;103507.03;5011167;28;20036;-69
2022/01/24 02:51:46;;;;;;;6.28;4.80;;;;;;;4.97;100.00;103505.19;5020696;28;20420;-68
2022/01/24 02:54:23;;;;;;;11.00;4.05;;;;;;;4.96;100.00;103498.19;5020965;28;20032;-69
2022/01/24 02:56:49;;;;;;;5.80;5.30;;;;;;;4.97;100.00;103506.09;5020732;28;20037;-68
2022/01/24 02:59:14;;;;;;;8.88;5.32;;;;;;;4.93;100.00;103506.91;5020396;28;20037;-69
2022/01/24 03:01:42;;;;;;;4.88;3.53;;;;;;;5.01;100.00;103496.53;5020033;28;20087;-68
2022/01/24 03:04:08;;;;;;;9.60;3.80;;;;;;;5.01;100.00;103494.78;5019328;28;20116;-69
2022/01/24 03:06:33;;;;;;;8.13;4.70;;;;;;;5.11;100.00;103493.22;5020161;28;20053;-69
2022/01/24 03:08:58;;;;;;;6.53;3.55;;;;;;;5.19;100.00;103489.91;5020722;28;20057;-69
2022/01/24 03:11:27;;;;;;;6.13;5.50;;;;;;;5.09;100.00;103489.69;5019532;28;20068;-69
2022/01/24 03:13:53;;;;;;;8.97;4.60;;;;;;;5.15;100.00;103482.81;5019538;28;20541;-69
2022/01/24 03:16:18;;;;;;;7.00;3.42;;;;;;;5.14;100.00;103481.03;5020883;28;20050;-69
2022/01/24 03:18:43;;;;;;;7.65;5.07;;;;;;;5.30;100.00;103483.13;5019134;28;20057;-69
2022/01/24 03:21:09;;;;;;;7.80;4.47;;;;;;;5.13;100.00;103476.63;5020406;28;20362;-69
2022/01/24 03:23:34;;;;;;;5.57;3.85;;;;;;;5.06;100.00;103477.31;5018721;28;20026;-68
2022/01/24 03:25:59;;;;;;;5.03;4.45;;;;;;;5.08;100.00;103477.34;5019422;28;20069;-68
2022/01/24 03:28:25;;;;;;;5.53;3.78;;;;;;;5.02;100.00;103470.22;5019326;28;20030;-69
2022/01/24 03:30:51;;;;;;;5.40;4.85;;;;;;;5.18;100.00;103474.97;5019920;28;20217;-69
2022/01/24 03:33:17;;;;;;;7.95;5.05;;;;;;;5.08;100.00;103469.47;5019389;28;20038;-69
2022/01/24 03:35:43;;;;;;;6.13;5.35;;;;;;;5.08;100.00;103475.63;5019220;28;20088;-69
2022/01/24 03:38:10;;;;;;;7.25;4.03;;;;;;;5.12;100.00;103472.19;5019462;28;20026;-69
2022/01/24 03:40:35;;;;;;;5.93;4.47;;;;;;;5.15;100.00;103467.00;5018860;28;20030;-69
2022/01/24 03:43:01;;;;;;;6.25;5.30;;;;;;;5.09;100.00;103461.59;5018065;28;20044;-69
2022/01/24 03:46:28;;;;;;;7.03;4.53;;;;;;;5.05;100.00;103458.84;5019501;28;20045;-69
2022/01/24 03:48:39;;;;;;;8.07;4.80;;;;;;;4.98;100.00;103471.00;5009338;28;20401;-69
2022/01/24 03:51:04;;;;;;;7.35;3.25;;;;;;;5.03;100.00;103465.88;5017803;28;20034;-70
2022/01/24 03:53:30;;;;;;;10.85;4.65;;;;;;;5.00;100.00;103476.31;5017287;28;20030;-69
2022/01/24 03:55:55;;;;;;;10.85;4.88;;;;;;;4.94;100.00;103474.44;5017258;28;20137;-70
2022/01/24 03:58:20;;;;;;;6.80;4.70;;;;;;;5.04;100.00;103470.25;5019105;28;20038;-69
2022/01/24 04:00:46;;;;;;;4.80;4.07;;;;;;;5.03;100.00;103473.78;5017675;28;20107;-69
2022/01/24 04:03:11;;;;;;;5.65;4.70;;;;;;;5.02;100.00;103469.34;5018722;28;20026;-69
2022/01/24 04:05:37;;;;;;;11.70;5.03;;;;;;;5.02;100.00;103483.41;5017118;28;20045;-69
2022/01/24 04:08:02;;;;;;;8.85;4.53;;;;;;;4.99;100.00;103478.06;5018819;28;20030;-70
2022/01/24 04:10:28;;;;;;;9.57;5.63;;;;;;;4.89;100.00;103473.44;5018073;28;20030;-69
2022/01/24 04:12:53;;;;;;;8.50;5.45;;;;;;;4.86;100.00;103481.28;5018979;28;20066;-70
2022/01/24 04:16:00;;;;;;;5.63;4.93;;;;;;;4.94;100.00;103482.34;5017428;28;20444;-70
2022/01/24 04:18:28;;;;;;;5.13;4.68;;;;;;;4.91;100.00;103473.47;5015955;28;20041;-69
2022/01/24 04:23:41;;;;;;;7.75;5.55;;;;;;;4.87;100.00;103479.53;5018943;28;20049;-69
2022/01/24 04:26:06;;;;;;;6.50;5.25;;;;;;;4.82;100.00;103483.81;5017022;28;20041;-69
2022/01/24 04:28:31;;;;;;;6.70;4.13;;;;;;;4.86;100.00;103481.28;5018334;28;20436;-70
2022/01/24 04:30:57;;;;;;;6.43;5.40;;;;;;;4.83;100.00;103478.56;5017150;28;20060;-69
2022/01/24 04:33:22;;;;;;;6.68;5.43;;;;;;;4.86;100.00;103472.47;5018444;28;20064;-69
2022/01/24 04:35:47;;;;;;;8.00;5.82;;;;;;;4.94;100.00;103479.72;5018462;28;20049;-69
2022/01/24 04:38:13;;;;;;;7.28;6.45;;;;;;;4.90;100.00;103477.84;5018339;28;20521;-69
2022/01/24 04:40:38;;;;;;;9.50;5.40;;;;;;;4.86;100.00;103470.75;5016663;28;20030;-69
2022/01/24 04:43:23;;;;;;;6.03;5.10;;;;;;;4.86;100.00;103478.63;5017326;28;20094;-69
2022/01/24 04:46:04;;;;;;;5.35;4.88;;;;;;;4.83;100.00;103473.31;5019317;28;20062;-69
2022/01/24 04:51:33;;;;;;;5.63;4.95;;;;;;;4.85;100.00;103465.44;5018185;28;20546;-68
2022/01/24 04:56:33;;;;;;;7.47;6.32;;;;;;;4.99;100.00;103461.38;5018237;28;20091;-69
2022/01/24 04:58:59;;;;;;;13.05;5.57;;;;;;;4.92;100.00;103456.84;5016235;28;20034;-69
2022/01/24 05:01:24;;;;;;;6.35;4.18;;;;;;;4.86;100.00;103449.69;5016746;28;20037;-69
2022/01/24 05:03:49;;;;;;;5.63;4.38;;;;;;;4.92;100.00;103460.34;5018037;28;20037;-69
2022/01/24 05:06:15;;;;;;;5.78;5.25;;;;;;;4.99;100.00;103464.00;5017064;28;20029;-69
2022/01/24 05:08:40;;;;;;;9.48;6.28;;;;;;;4.92;100.00;103465.59;5017205;28;20033;-69
2022/01/24 05:11:10;;;;;;;8.93;5.05;;;;;;;4.92;100.00;103460.34;5016394;28;20528;-69
2022/01/24 05:21:29;;;;;;;6.95;6.30;;;;;;;4.85;100.00;103458.44;5017812;28;20048;-70
2022/01/24 05:24:30;;;;;;;7.65;5.68;;;;;;;4.86;100.00;103465.47;5017439;28;20026;-69
2022/01/24 05:26:56;;;;;;;9.15;4.40;;;;;;;4.96;100.00;103466.56;5014992;28;20045;-69
2022/01/24 05:29:21;;;;;;;7.53;4.75;;;;;;;4.83;100.00;103461.88;5017688;28;20082;-68
2022/01/24 05:31:46;;;;;;;5.15;4.35;;;;;;;4.85;100.00;103463.72;5017469;28;20066;-69
2022/01/24 05:34:12;;;;;;;7.07;4.70;;;;;;;4.80;100.00;103460.09;5017523;28;20057;-70
2022/01/24 05:36:37;;;;;;;4.90;4.47;;;;;;;4.83;100.00;103453.97;5017067;28;20030;-69
2022/01/24 05:39:03;;;;;;;6.88;5.55;;;;;;;4.89;100.00;103460.28;5016186;28;20056;-69
2022/01/24 05:41:28;;;;;;;11.25;4.90;;;;;;;4.77;100.00;103462.66;5017786;28;20032;-69
2022/01/24 05:43:53;;;;;;;6.07;4.75;;;;;;;4.73;100.00;103466.03;5017270;28;20033;-69
2022/01/24 05:46:19;;;;;;;9.55;5.85;;;;;;;4.80;100.00;103454.81;5014119;28;20029;-69
2022/01/24 05:48:44;;;;;;;6.40;5.80;;;;;;;4.73;100.00;103453.78;5012488;28;20037;-70
2022/01/24 05:51:09;;;;;;;11.23;6.93;;;;;;;4.72;100.00;103456.38;5015846;28;20080;-71
2022/01/24 05:53:35;;;;;;;8.10;5.82;;;;;;;4.69;100.00;103456.31;5022516;28;20041;-72
2022/01/24 05:56:00;;;;;;;8.45;4.47;;;;;;;4.71;100.00;103462.50;5021636;28;20105;-70
2022/01/24 05:58:25;;;;;;;13.63;7.07;;;;;;;4.68;100.00;103465.03;5023423;28;20022;-70
2022/01/24 06:00:51;;;;;;;12.65;5.75;;;;;;;4.63;100.00;103466.72;5020642;28;20045;-70
2022/01/24 06:03:17;;;;;;;9.60;5.88;;;;;;;4.65;100.00;103467.63;5019099;28;20113;-70
2022/01/24 06:05:42;;;;;;;8.85;6.43;;;;;;;4.62;100.00;103468.44;5023516;28;20129;-72
2022/01/24 06:08:07;;;;;;;5.00;4.50;;;;;;;4.64;100.00;103465.84;5020948;28;20029;-72
2022/01/24 06:10:33;;;;;;;8.60;5.60;;;;;;;4.62;100.00;103472.81;5020928;28;20044;-71
2022/01/24 06:12:58;;;;;;;8.07;5.50;;;;;;;4.61;100.00;103473.66;5018141;28;20036;-70
2022/01/24 06:15:23;;;;;;;7.93;6.63;;;;;;;4.62;100.00;103478.97;5021362;28;20469;-71
2022/01/24 06:17:49;;;;;;;11.30;5.20;;;;;;;4.59;100.00;103483.25;5025791;28;20030;-70
2022/01/24 06:20:14;;;;;;;7.72;5.70;;;;;;;4.61;100.00;103481.56;5020864;28;20097;-70
2022/01/24 06:22:40;;;;;;;7.15;5.75;;;;;;;4.62;100.00;103478.06;5021991;28;20065;-71
2022/01/24 06:25:07;;;;;;;6.22;4.95;;;;;;;4.69;100.00;103482.63;5019727;28;20076;-69
2022/01/24 06:27:32;;;;;;;5.63;5.18;;;;;;;4.57;100.00;103487.59;5020778;28;20074;-71
2022/01/24 06:29:57;;;;;;;13.10;5.43;;;;;;;4.56;100.00;103488.47;5019812;28;20053;-71
2022/01/24 06:32:23;;;;;;;12.30;6.57;;;;;;;4.49;100.00;103491.81;5020787;28;20545;-72
2022/01/24 06:34:48;;;;;;;7.53;5.18;;;;;;;4.42;100.00;103482.88;5027014;28;20339;-72
2022/01/24 06:37:13;;;;;;;11.43;4.90;;;;;;;4.60;100.00;103491.19;5023368;28;20030;-71
2022/01/24 06:39:39;;;;;;;7.72;6.90;;;;;;;4.41;100.00;103486.34;5024734;28;20037;-71
2022/01/24 06:44:36;;;;;;;5.97;5.38;;;;;;;4.42;100.00;103488.13;5019379;28;20107;-71
2022/01/24 06:47:02;;;;;;;14.55;5.57;;;;;;;4.43;100.00;103484.66;5018358;28;20022;-71
2022/01/24 06:49:28;;;;;;;7.43;5.10;;;;;;;4.50;100.00;103490.94;5020067;28;20030;-70
2022/01/24 06:51:53;;;;;;;9.52;6.13;;;;;;;4.55;100.00;103479.66;5018758;28;20393;-70
2022/01/24 06:54:18;;;;;;;8.77;5.60;;;;;;;4.39;100.00;103477.53;5017411;28;20034;-70
2022/01/24 06:56:44;;;;;;;9.23;6.13;;;;;;;4.42;100.00;103489.88;5018471;28;20466;-70
2022/01/24 06:59:09;;;;;;;7.47;6.78;;;;;;;4.53;100.00;103491.03;5027631;28;20053;-70
2022/01/24 07:01:34;;;;;;;6.07;5.47;;;;;;;4.53;100.00;103494.56;5017118;28;20037;-70
2022/01/24 07:04:00;;;;;;;11.63;7.20;;;;;;;4.44;100.00;103491.66;5017275;28;20092;-70
2022/01/24 07:06:25;;;;;;;9.63;4.78;;;;;;;4.48;100.00;103496.19;5018008;28;20033;-70
2022/01/24 07:08:50;;;;;;;7.97;5.68;;;;;;;4.45;100.00;103496.09;5018435;28;20466;-70
2022/01/24 07:11:16;;;;;;;6.63;5.88;;;;;;;4.41;100.00;103488.97;5024036;28;20026;-73
2022/01/24 07:13:41;;;;;;;15.73;7.60;;;;;;;4.30;100.00;103494.84;5022209;28;20057;-72
2022/01/24 07:16:07;;;;;;;14.20;6.35;;;;;;;4.30;100.00;103505.38;5016899;28;20030;-72
2022/01/24 07:21:00;;;;;;;4.88;4.47;;;;;;;4.36;100.00;103508.16;5018071;28;20034;-70
2022/01/24 07:23:26;;;;;;;6.80;5.10;;;;;;;4.34;100.00;103512.47;5029855;28;20030;-76
2022/01/24 07:25:51;;;;;;;6.57;4.82;;;;;;;4.37;100.00;103516.06;5031842;28;20049;-73
2022/01/24 07:28:17;;;;;;;10.55;5.32;;;;;;;4.29;100.00;103508.81;5029352;28;20026;-70
2022/01/24 07:30:44;;;;;;;12.63;7.22;;;;;;;4.34;100.00;103501.94;5024270;28;20038;-68
2022/01/24 07:33:10;;;;;;;10.27;6.45;;;;;;;4.40;100.00;103512.63;5019692;28;20034;-69
2022/01/24 07:35:35;;;;;;;7.40;5.47;;;;;;;4.41;100.00;103507.38;5019365;28;20048;-68
2022/01/24 07:38:01;;;;;;;7.00;5.80;;;;;;;4.39;100.00;103527.53;5018262;28;20064;-68
2022/01/24 07:40:26;;;;;;;5.47;4.97;;;;;;;4.41;100.00;103528.44;5019655;28;20095;-69
2022/01/24 07:45:19;;;;;;;6.40;4.35;;;;;;;4.37;100.00;103530.97;5019102;28;20038;-69
2022/01/24 07:47:47;;;;;;;8.80;5.65;;;;;;;4.36;100.00;103531.81;5018607;28;20060;-69
2022/01/24 07:50:13;;;;;;;8.73;6.40;;;;;;;4.35;100.00;103536.19;5018569;28;20137;-70
2022/01/24 07:52:39;;;;;;;8.25;6.18;;;;;;;4.36;100.00;103532.72;5019134;28;20025;-70
2022/01/24 07:55:04;;;;;;;6.78;5.93;;;;;;;4.39;100.00;103542.41;5018892;28;20080;-70
2022/01/24 07:57:30;;;;;;;7.60;3.47;;;;;;;4.39;100.00;103538.06;5019710;28;20030;-69
2022/01/24 07:59:55;;;;;;;6.75;4.20;;;;;;;4.38;100.00;103535.38;5018682;28;20060;-69
2022/01/24 08:02:20;;;;;;;4.35;3.92;;;;;;;4.39;100.00;103535.44;5019671;28;20025;-70
2022/01/24 08:04:46;;;;;;;7.55;4.22;;;;;;;4.41;100.00;103538.97;5018444;28;20065;-70
2022/01/24 08:07:11;;;;;;;14.25;5.30;;;;;;;4.41;100.00;103531.06;5018033;28;20417;-69
2022/01/24 08:09:36;;;;;;;6.05;4.53;;;;;;;4.46;100.00;103531.19;5018329;28;20041;-70
2022/01/24 08:12:02;;;;;;;9.23;5.22;;;;;;;4.43;100.00;103534.63;5019171;28;20041;-70
2022/01/24 08:14:27;;;;;;;6.82;4.80;;;;;;;4.49;100.00;103539.19;5019294;28;20045;-69
2022/01/24 08:16:53;;;;;;;9.23;4.75;;;;;;;4.47;100.00;103535.59;5017778;28;20022;-69
2022/01/24 08:19:18;;;;;;;5.35;4.07;;;;;;;4.50;100.00;103539.22;5019181;28;20531;-70
2022/01/24 08:21:45;;;;;;;5.05;4.18;;;;;;;4.52;100.00;103540.13;5018795;28;20072;-70
2022/01/24 08:24:11;;;;;;;4.63;3.88;;;;;;;4.52;100.00;103539.25;5019265;28;20462;-70
2022/01/24 08:26:36;;;;;;;9.23;6.05;;;;;;;4.54;100.00;103546.31;5018802;28;20060;-70
2022/01/24 08:29:02;;;;;;;5.28;4.10;;;;;;;4.58;100.00;103540.28;5018534;28;20022;-69
2022/01/24 08:31:28;;;;;;;7.25;5.95;;;;;;;4.60;100.00;103530.69;5017102;28;20074;-70
2022/01/24 08:33:53;;;;;;;7.03;5.35;;;;;;;4.62;100.00;103535.97;5018265;28;20060;-69
2022/01/24 08:36:18;;;;;;;5.47;4.88;;;;;;;4.66;100.00;103533.44;5016786;28;20541;-69
2022/01/24 08:38:47;;;;;;;7.15;4.53;;;;;;;4.65;100.00;103536.94;5017128;28;20129;-69
2022/01/24 08:41:21;;;;;;;4.50;4.07;;;;;;;4.70;100.00;103534.41;5017331;28;20113;-68
2022/01/24 08:46:14;;;;;;;6.95;4.45;;;;;;;4.79;100.00;103537.25;5017857;28;20056;-70
2022/01/24 08:48:42;;;;;;;12.15;4.55;;;;;;;4.82;100.00;103540.00;5017450;28;20552;-69
2022/01/24 08:51:07;;;;;;;8.80;5.57;;;;;;;4.78;100.00;103542.50;5016288;28;20026;-69
2022/01/24 08:53:34;;;;;;;4.95;3.78;;;;;;;4.91;100.00;103534.03;5017502;28;20030;-69
2022/01/24 08:56:01;;;;;;;6.75;5.18;;;;;;;4.80;100.00;103539.06;5017680;28;20037;-70
2022/01/24 08:58:28;;;;;;;12.57;6.70;;;;;;;4.79;100.00;103537.25;5017833;28;20033;-69
2022/01/24 09:00:54;;;;;;;6.30;4.45;;;;;;;4.83;100.00;103539.13;5017089;28;20092;-68
2022/01/24 09:03:20;;;;;;;7.70;6.80;;;;;;;4.86;100.00;103536.56;5018083;28;20030;-69
2022/01/24 09:05:47;;;;;;;11.20;4.97;;;;;;;4.96;100.00;103541.22;5016324;28;20022;-69
2022/01/24 09:08:13;;;;;;;9.73;6.90;;;;;;;4.97;100.00;103534.19;5017911;28;20036;-69
2022/01/24 09:10:40;;;;;;;7.82;5.68;;;;;;;5.03;100.00;103537.84;5015845;28;20112;-69
2022/01/24 09:13:07;;;;;;;5.95;5.45;;;;;;;5.07;100.00;103536.19;5017240;28;20026;-69
2022/01/24 09:15:32;;;;;;;8.43;6.07;;;;;;;5.08;100.00;103543.22;5017745;28;20397;-68
2022/01/24 09:17:58;;;;;;;8.40;5.40;;;;;;;5.07;100.00;103542.34;5016995;28;20026;-68
2022/01/24 09:20:23;;;;;;;8.52;5.93;;;;;;;5.17;100.00;103543.44;5016983;28;20077;-69
2022/01/24 09:22:49;;;;;;;9.55;5.07;;;;;;;5.33;100.00;103538.53;5017672;28;20030;-68
2022/01/24 09:25:16;;;;;;;9.10;5.70;;;;;;;5.28;100.00;103539.28;5016828;28;20022;-69
2022/01/24 09:27:43;;;;;;;6.10;4.82;;;;;;;5.22;100.00;103540.03;5017392;28;20046;-70
2022/01/24 09:30:10;;;;;;;10.02;5.55;;;;;;;5.12;100.00;103534.53;5016698;28;20446;-69
2022/01/24 09:32:36;;;;;;;7.35;5.03;;;;;;;5.20;100.00;103535.59;5018002;28;20393;-69
2022/01/24 09:35:04;;;;;;;7.18;5.43;;;;;;;5.19;100.00;103537.34;5017227;28;20025;-69
2022/01/24 09:37:30;;;;;;;5.80;3.17;;;;;;;5.20;100.00;103531.19;5015148;28;20034;-68
2022/01/24 09:39:56;;;;;;;9.93;5.00;;;;;;;5.18;100.00;103538.22;5017469;28;20018;-70
2022/01/24 09:42:21;;;;;;;6.35;5.20;;;;;;;5.20;100.00;103543.50;5017165;28;20049;-70
2022/01/24 09:44:46;;;;;;;13.10;6.07;;;;;;;5.20;100.00;103547.00;5017681;28;20458;-69
2022/01/24 09:47:16;;;;;;;9.25;5.35;;;;;;;5.33;100.00;103543.78;5015411;28;20053;-68
2022/01/24 09:49:43;;;;;;;10.00;5.72;;;;;;;5.19;100.00;103547.88;5017676;28;20120;-68
2022/01/24 09:52:08;;;;;;;7.30;4.70;;;;;;;5.26;100.00;103551.53;5017267;28;20022;-69
2022/01/24 09:54:34;;;;;;;9.20;4.97;;;;;;;5.26;100.00;103551.53;5017211;28;20026;-68
2022/01/24 09:57:00;;;;;;;8.07;4.32;;;;;;;5.24;100.00;103553.25;5017184;28;20030;-69
2022/01/24 09:59:25;;;;;;;8.15;5.28;;;;;;;5.37;100.00;103553.56;5015772;28;20034;-68
2022/01/24 10:01:50;;;;;;;7.95;5.82;;;;;;;5.41;100.00;103557.13;5016675;28;20050;-69
2022/01/24 10:04:18;;;;;;;6.57;5.32;;;;;;;5.48;100.00;103554.69;5015592;28;20173;-69
2022/01/24 10:07:22;;;;;;;8.05;5.88;;;;;;;5.43;100.00;103552.78;5017300;28;20030;-69
2022/01/24 10:09:53;;;;;;;6.70;5.25;;;;;;;5.54;100.00;103557.44;5022067;28;20446;-69
2022/01/24 10:17:44;;;;;;;9.88;9.02;;;;;;;5.39;100.00;103558.88;5020936;28;20049;-69
2022/01/24 10:20:26;;;;;;;26.05;24.50;;;;;;;5.40;100.00;103556.25;5020454;28;20018;-69
2022/01/24 10:23:13;;;;;;;12.00;11.02;;;;;;;5.35;100.00;103559.63;5019808;28;20026;-68
2022/01/24 10:26:04;;;;;;;9.65;6.30;;;;;;;5.42;100.00;103557.16;5020745;28;20022;-69
2022/01/24 10:28:31;;;;;;;10.20;5.97;;;;;;;5.56;100.00;103560.97;5020785;28;20033;-69
2022/01/24 10:31:09;;;;;;;12.57;11.23;;;;;;;5.63;100.00;103559.34;5018830;28;20038;-69
2022/01/24 10:34:00;;;;;;;11.20;10.15;;;;;;;5.69;100.00;103563.00;5020175;28;20434;-69
2022/01/24 10:36:43;;;;;;;12.48;11.02;;;;;;;5.88;100.00;103559.03;5018782;28;20022;-69
2022/01/24 10:39:22;;;;;;;6.43;5.78;;;;;;;5.75;100.00;103555.22;5019226;28;20121;-69
2022/01/24 10:44:56;;;;;;;13.55;12.55;;;;;;;5.52;100.00;103556.50;5020050;28;20092;-69
2022/01/24 10:47:30;;;;;;;10.55;6.28;;;;;;;5.41;100.00;103551.84;5019273;28;20067;-69
2022/01/24 10:49:58;;;;;;;7.53;5.95;;;;;;;5.44;100.00;103539.63;5019929;28;20037;-69
2022/01/24 10:52:33;;;;;;;17.13;15.93;;;;;;;5.46;100.00;103551.13;5025409;28;20037;-72
2022/01/24 10:55:17;;;;;;;8.07;5.82;;;;;;;5.44;100.00;103542.28;5026831;28;20030;-69
2022/01/24 10:57:47;;;;;;;9.45;5.72;;;;;;;5.50;100.00;103538.91;5021948;28;20763;-69
2022/01/24 11:00:26;;;;;;;14.60;13.73;;;;;;;5.54;100.00;103536.34;5014686;28;20031;-71
2022/01/24 11:02:54;;;;;;;10.13;7.22;;;;;;;5.59;100.00;103539.09;5013270;28;20021;-68
2022/01/24 11:05:24;;;;;;;12.32;11.32;;;;;;;5.72;100.00;103535.84;5023233;28;20026;-70
2022/01/24 11:08:11;;;;;;;11.25;8.70;;;;;;;5.58;100.00;103525.00;5011159;28;20037;-68
2022/01/24 11:10:45;;;;;;;11.85;10.32;;;;;;;5.60;100.00;103520.66;5011420;28;20026;-69
2022/01/24 11:13:12;;;;;;;7.85;7.25;;;;;;;5.55;100.00;103527.56;5021675;28;20080;-68
2022/01/24 11:15:44;;;;;;;12.30;8.45;;;;;;;5.65;100.00;103524.28;5019072;28;20030;-72
2022/01/24 11:18:14;;;;;;;5.50;4.68;;;;;;;5.23;100.00;103520.72;5018188;28;20473;-69
2022/01/24 11:20:44;;;;;;;8.77;7.90;;;;;;;5.35;100.00;103526.28;5017717;28;20041;-69
2022/01/24 11:23:10;;;;;;;8.50;7.72;;;;;;;5.22;100.00;103518.97;5016674;28;20026;-69
2022/01/24 11:25:43;;;;;;;7.15;6.50;;;;;;;5.45;100.00;103514.19;5018165;28;20529;-69
2022/01/24 11:28:09;;;;;;;9.13;6.95;;;;;;;5.50;100.00;103518.69;5018860;28;20060;-69
2022/01/24 11:30:44;;;;;;;8.93;6.95;;;;;;;5.69;100.00;103510.28;5016107;28;20186;-69
2022/01/24 11:33:19;;;;;;;8.90;7.90;;;;;;;5.73;100.00;103514.78;5016906;28;20076;-69
2022/01/24 11:35:56;;;;;;;9.77;8.98;;;;;;;5.81;100.00;103507.91;5018055;28;20033;-69
2022/01/24 11:38:25;;;;;;;14.38;9.35;;;;;;;5.76;100.00;103509.56;5013019;28;20034;-69
2022/01/24 11:40:57;;;;;;;12.48;6.25;;;;;;;5.65;100.00;103510.19;5004956;28;20030;-70
2022/01/24 11:43:33;;;;;;;14.48;8.43;;;;;;;5.79;100.00;103506.97;5010615;28;20037;-69
2022/01/24 11:46:28;;;;;;;11.77;8.10;;;;;;;5.91;100.00;103511.59;5009099;28;20705;-68
2022/01/24 11:49:27;;;;;;;10.23;8.85;;;;;;;5.88;100.00;103501.91;5008322;28;20386;-69
2022/01/24 11:52:12;;;;;;;10.57;8.27;;;;;;;5.97;100.00;103495.94;5010026;28;20024;-72
2022/01/24 11:55:02;;;;;;;9.13;8.32;;;;;;;6.09;100.00;103502.31;5003718;28;20121;-69
2022/01/24 11:57:46;;;;;;;8.90;7.88;;;;;;;6.14;100.00;103500.66;5013116;28;20034;-68
2022/01/24 12:00:12;;;;;;;9.68;6.78;;;;;;;6.11;100.00;103504.97;5008460;28;20026;-69
2022/01/24 12:02:45;;;;;;;8.85;8.05;;;;;;;5.97;100.00;103506.47;5013727;28;20026;-70
2022/01/24 12:05:16;;;;;;;16.98;8.88;;;;;;;5.87;100.00;103501.88;5016450;28;20071;-70
2022/01/24 12:07:43;;;;;;;22.52;9.15;;;;;;;5.80;100.00;103507.84;5011928;28;20416;-69
2022/01/24 12:10:21;;;;;;;13.68;9.80;;;;;;;5.84;100.00;103494.81;5009291;28;20033;-68
2022/01/24 12:12:56;;;;;;;9.63;8.05;;;;;;;5.75;100.00;103502.50;5006926;28;20049;-68
2022/01/24 12:15:37;;;;;;;9.98;9.07;;;;;;;5.64;100.00;103500.53;5013894;28;20034;-69
2022/01/24 12:18:03;;;;;;;8.48;7.20;;;;;;;5.64;100.00;103492.63;5012982;28;20049;-69
2022/01/24 12:20:31;;;;;;;9.52;8.63;;;;;;;5.68;100.00;103499.72;5020798;28;20022;-69
2022/01/24 12:23:16;;;;;;;10.95;7.40;;;;;;;5.67;100.00;103497.94;5016639;28;20065;-68
2022/01/24 12:26:01;;;;;;;11.15;8.80;;;;;;;5.83;100.00;103498.28;5005610;28;20025;-69
2022/01/24 12:28:30;;;;;;;8.02;6.70;;;;;;;6.06;100.00;103496.09;5021633;28;20473;-69
2022/01/24 12:31:03;;;;;;;8.88;6.72;;;;;;;5.96;100.00;103502.03;5019130;28;20130;-68
2022/01/24 12:33:30;;;;;;;12.13;9.50;;;;;;;5.93;100.00;103496.72;5012258;28;20105;-69
2022/01/24 12:35:55;;;;;;;8.50;7.65;;;;;;;6.02;100.00;103489.84;5016260;28;20083;-69
2022/01/24 12:38:21;;;;;;;22.67;10.82;;;;;;;6.04;100.00;103481.97;5010662;28;20042;-68
2022/01/24 12:40:47;;;;;;;9.85;9.05;;;;;;;5.97;100.00;103488.00;5013908;28;20037;-70
2022/01/24 12:43:19;;;;;;;12.30;11.38;;;;;;;6.05;100.00;103494.31;5014011;28;20064;-70
2022/01/24 12:48:30;;;;;;;9.02;5.80;;;;;;;5.67;100.00;103484.75;5018423;28;20041;-68
2022/01/24 12:50:55;;;;;;;7.97;4.80;;;;;;;5.86;100.00;103482.50;5015596;28;20040;-68
2022/01/24 12:53:21;;;;;;;9.60;5.50;;;;;;;5.83;100.00;103487.75;5009076;28;20026;-68
2022/01/24 12:55:57;;;;;;;8.90;6.00;;;;;;;5.82;100.00;103485.06;5013286;28;20034;-68
2022/01/24 12:58:35;;;;;;;7.53;6.28;;;;;;;5.95;100.00;103482.72;5016773;28;20438;-68
2022/01/24 13:01:00;;;;;;;10.73;7.80;;;;;;;5.90;100.00;103489.66;5010920;28;20034;-69
2022/01/24 13:03:26;;;;;;;9.27;8.55;;;;;;;6.10;100.00;103476.78;5010811;28;20034;-69
2022/01/24 13:05:51;;;;;;;12.25;6.97;;;;;;;5.99;100.00;103467.81;5014494;28;20040;-69
2022/01/24 13:08:17;;;;;;;6.47;5.35;;;;;;;5.90;100.00;103463.28;5016489;28;20030;-69
2022/01/24 13:10:47;;;;;;;7.70;5.57;;;;;;;5.96;100.00;103462.47;5016744;28;20026;-68
2022/01/24 13:13:15;;;;;;;17.65;16.40;;;;;;;6.06;100.00;103462.69;5009904;28;20026;-68
2022/01/24 13:21:22;;;;;;;6.72;5.22;;;;;;;5.73;100.00;103454.13;5001325;28;20097;-68
2022/01/24 13:24:00;;;;;;;8.55;5.22;;;;;;;5.67;100.00;103453.13;5009227;28;20038;-68
2022/01/24 13:26:26;;;;;;;6.60;5.10;;;;;;;5.89;100.00;103444.78;5022521;28;20066;-68